Terminal Aerodrome Forecast
Issued by NWS

Home | Current Version | Previous Version | Graphics & Text | Print | Product List | Glossary On
Versions: 1 2 3 4 5 6 7 8 9 10 11 12 13
780
FTUS43 KBIS 291130
TAFDIK
TAF
KDIK 291130Z 2912/3012 07005KT P6SM BKN080
     FM291600 10012KT P6SM SCT050 SCT090
     FM300200 09009KT P6SM BKN050
     FM300900 06006KT P6SM SCT035=

USA.gov is the U.S. government's official web portal to all federal, state and local government web resources and services.